sensor_id;sensor_type;location;lat;lon;timestamp;temperature;humidity
3790;DHT22;1910;49.042;9.028;2022-10-16T00:05:41;15.90;99.90
3790;DHT22;1910;49.042;9.028;2022-10-16T00:08:07;15.90;99.90
3790;DHT22;1910;49.042;9.028;2022-10-16T00:10:33;16.20;99.90
3790;DHT22;1910;49.042;9.028;2022-10-16T00:15:25;16.10;99.90
3790;DHT22;1910;49.042;9.028;2022-10-16T00:17:50;15.90;99.90
3790;DHT22;1910;49.042;9.028;2022-10-16T00:20:16;16.20;99.90
3790;DHT22;1910;49.042;9.028;2022-10-16T00:22:41;15.90;99.90
3790;DHT22;1910;49.042;9.028;2022-10-16T00:27:34;15.20;99.90
3790;DHT22;1910;49.042;9.028;2022-10-16T00:34:51;16.20;99.90
3790;DHT22;1910;49.042;9.028;2022-10-16T00:42:15;16.10;99.90
3790;DHT22;1910;49.042;9.028;2022-10-16T00:47:26;16.10;99.90
3790;DHT22;1910;49.042;9.028;2022-10-16T00:49:58;16.30;99.90
3790;DHT22;1910;49.042;9.028;2022-10-16T00:52:25;16.10;99.90
3790;DHT22;1910;49.042;9.028;2022-10-16T00:54:52;16.20;99.90
3790;DHT22;1910;49.042;9.028;2022-10-16T00:59:45;16.10;99.90
3790;DHT22;1910;49.042;9.028;2022-10-16T01:02:14;16.20;99.90
3790;DHT22;1910;49.042;9.028;2022-10-16T01:04:44;16.10;99.90
3790;DHT22;1910;49.042;9.028;2022-10-16T01:13:01;16.40;99.90
3790;DHT22;1910;49.042;9.028;2022-10-16T01:15:36;16.20;99.90
3790;DHT22;1910;49.042;9.028;2022-10-16T01:20:31;16.20;99.90
3790;DHT22;1910;49.042;9.028;2022-10-16T01:23:21;16.20;99.90
3790;DHT22;1910;49.042;9.028;2022-10-16T01:31:17;16.10;99.90
3790;DHT22;1910;49.042;9.028;2022-10-16T01:33:45;16.10;99.90
3790;DHT22;1910;49.042;9.028;2022-10-16T01:36:21;16.10;99.90
3790;DHT22;1910;49.042;9.028;2022-10-16T01:38:51;16.10;99.90
3790;DHT22;1910;49.042;9.028;2022-10-16T01:41:38;16.20;99.90
3790;DHT22;1910;49.042;9.028;2022-10-16T01:44:20;16.20;99.90
3790;DHT22;1910;49.042;9.028;2022-10-16T01:46:49;16.10;99.90
3790;DHT22;1910;49.042;9.028;2022-10-16T01:49:16;16.10;99.90
3790;DHT22;1910;49.042;9.028;2022-10-16T01:51:43;16.10;99.90
3790;DHT22;1910;49.042;9.028;2022-10-16T01:54:11;16.20;99.90
3790;DHT22;1910;49.042;9.028;2022-10-16T01:59:14;16.10;99.90
3790;DHT22;1910;49.042;9.028;2022-10-16T02:01:45;16.10;99.90
3790;DHT22;1910;49.042;9.028;2022-10-16T02:04:20;16.00;99.90
3790;DHT22;1910;49.042;9.028;2022-10-16T02:16:40;15.90;99.90
3790;DHT22;1910;49.042;9.028;2022-10-16T02:19:07;15.90;99.90
3790;DHT22;1910;49.042;9.028;2022-10-16T02:21:49;16.10;99.90
3790;DHT22;1910;49.042;9.028;2022-10-16T02:24:56;16.00;99.90
3790;DHT22;1910;49.042;9.028;2022-10-16T02:27:41;15.90;99.90
3790;DHT22;1910;49.042;9.028;2022-10-16T02:30:37;16.00;99.90
3790;DHT22;1910;49.042;9.028;2022-10-16T02:33:09;15.90;99.90
3790;DHT22;1910;49.042;9.028;2022-10-16T02:35:36;16.00;99.90
3790;DHT22;1910;49.042;9.028;2022-10-16T02:45:22;16.00;99.90
3790;DHT22;1910;49.042;9.028;2022-10-16T02:47:48;16.00;99.90
3790;DHT22;1910;49.042;9.028;2022-10-16T03:04:50;15.90;99.90
3790;DHT22;1910;49.042;9.028;2022-10-16T03:09:42;15.70;99.90
3790;DHT22;1910;49.042;9.028;2022-10-16T03:51:05;15.60;99.90
3790;DHT22;1910;49.042;9.028;2022-10-16T04:00:49;15.40;99.90
3790;DHT22;1910;49.042;9.028;2022-10-16T04:08:07;15.40;99.90
3790;DHT22;1910;49.042;9.028;2022-10-16T04:12:58;15.30;99.90
3790;DHT22;1910;49.042;9.028;2022-10-16T04:15:25;15.40;99.90
3790;DHT22;1910;49.042;9.028;2022-10-16T04:17:51;15.40;99.90
3790;DHT22;1910;49.042;9.028;2022-10-16T04:20:17;15.40;99.90
3790;DHT22;1910;49.042;9.028;2022-10-16T04:22:42;15.40;99.90
3790;DHT22;1910;49.042;9.028;2022-10-16T04:27:34;15.50;99.90
3790;DHT22;1910;49.042;9.028;2022-10-16T04:30:00;15.60;99.90
3790;DHT22;1910;49.042;9.028;2022-10-16T04:32:26;15.60;99.90
3790;DHT22;1910;49.042;9.028;2022-10-16T04:34:53;15.60;99.90
3790;DHT22;1910;49.042;9.028;2022-10-16T04:54:21;15.60;99.90
3790;DHT22;1910;49.042;9.028;2022-10-16T04:56:47;15.60;99.90
3790;DHT22;1910;49.042;9.028;2022-10-16T04:59:17;15.40;99.90
3790;DHT22;1910;49.042;9.028;2022-10-16T05:01:43;15.50;99.90
3790;DHT22;1910;49.042;9.028;2022-10-16T05:06:35;15.00;99.90
3790;DHT22;1910;49.042;9.028;2022-10-16T05:09:01;15.50;99.90
3790;DHT22;1910;49.042;9.028;2022-10-16T05:13:53;15.40;99.90
3790;DHT22;1910;49.042;9.028;2022-10-16T05:16:18;15.50;99.90
3790;DHT22;1910;49.042;9.028;2022-10-16T05:21:10;15.50;99.90
3790;DHT22;1910;49.042;9.028;2022-10-16T05:28:28;15.60;99.90
3790;DHT22;1910;49.042;9.028;2022-10-16T05:33:22;15.70;99.90
3790;DHT22;1910;49.042;9.028;2022-10-16T05:47:59;15.40;99.90
3790;DHT22;1910;49.042;9.028;2022-10-16T05:57:43;15.30;99.90
3790;DHT22;1910;49.042;9.028;2022-10-16T06:00:09;15.30;99.90
3790;DHT22;1910;49.042;9.028;2022-10-16T06:02:35;15.20;99.90
3790;DHT22;1910;49.042;9.028;2022-10-16T06:05:01;15.10;99.90
3790;DHT22;1910;49.042;9.028;2022-10-16T06:07:26;15.10;99.90
3790;DHT22;1910;49.042;9.028;2022-10-16T06:09:52;15.10;99.90
3790;DHT22;1910;49.042;9.028;2022-10-16T06:17:12;15.40;99.90
3790;DHT22;1910;49.042;9.028;2022-10-16T06:26:56;15.60;99.90
3790;DHT22;1910;49.042;9.028;2022-10-16T06:46:25;15.60;99.90
3790;DHT22;1910;49.042;9.028;2022-10-16T06:48:52;15.80;99.90
3790;DHT22;1910;49.042;9.028;2022-10-16T06:51:20;15.90;99.90
3790;DHT22;1910;49.042;9.028;2022-10-16T06:53:48;16.10;99.90
3790;DHT22;1910;49.042;9.028;2022-10-16T06:56:22;16.10;99.90
3790;DHT22;1910;49.042;9.028;2022-10-16T07:01:15;16.50;99.90
3790;DHT22;1910;49.042;9.028;2022-10-16T07:03:43;16.50;99.90
3790;DHT22;1910;49.042;9.028;2022-10-16T07:06:11;16.50;99.90
3790;DHT22;1910;49.042;9.028;2022-10-16T07:08:39;16.50;99.90
3790;DHT22;1910;49.042;9.028;2022-10-16T07:11:07;16.50;99.90
3790;DHT22;1910;49.042;9.028;2022-10-16T07:13:37;16.70;99.90
3790;DHT22;1910;49.042;9.028;2022-10-16T07:16:14;16.90;99.90
3790;DHT22;1910;49.042;9.028;2022-10-16T07:21:09;17.10;99.90
3790;DHT22;1910;49.042;9.028;2022-10-16T07:30:53;17.90;99.90
3790;DHT22;1910;49.042;9.028;2022-10-16T07:35:52;18.20;99.90
3790;DHT22;1910;49.042;9.028;2022-10-16T07:38:18;18.10;99.90
3790;DHT22;1910;49.042;9.028;2022-10-16T07:40:44;18.10;99.90
3790;DHT22;1910;49.042;9.028;2022-10-16T07:45:36;18.20;99.90
3790;DHT22;1910;49.042;9.028;2022-10-16T07:48:01;18.30;99.90
3790;DHT22;1910;49.042;9.028;2022-10-16T07:52:53;19.00;99.90
3790;DHT22;1910;49.042;9.028;2022-10-16T07:57:44;18.70;99.90
3790;DHT22;1910;49.042;9.028;2022-10-16T08:00:10;18.70;99.90
3790;DHT22;1910;49.042;9.028;2022-10-16T08:02:42;18.50;99.90
3790;DHT22;1910;49.042;9.028;2022-10-16T08:05:07;18.70;99.90
3790;DHT22;1910;49.042;9.028;2022-10-16T08:07:33;18.60;99.90
3790;DHT22;1910;49.042;9.028;2022-10-16T08:19:47;21.30;99.90
3790;DHT22;1910;49.042;9.028;2022-10-16T08:22:14;21.10;99.90
3790;DHT22;1910;49.042;9.028;2022-10-16T08:36:53;21.40;99.90
3790;DHT22;1910;49.042;9.028;2022-10-16T08:44:42;21.40;99.90
3790;DHT22;1910;49.042;9.028;2022-10-16T08:47:22;21.00;99.90
3790;DHT22;1910;49.042;9.028;2022-10-16T08:49:59;20.50;99.90
3790;DHT22;1910;49.042;9.028;2022-10-16T08:52:29;20.90;99.90
3790;DHT22;1910;49.042;9.028;2022-10-16T08:57:24;20.20;99.90
3790;DHT22;1910;49.042;9.028;2022-10-16T08:59:55;20.20;99.90
3790;DHT22;1910;49.042;9.028;2022-10-16T09:02:36;19.60;99.90
3790;DHT22;1910;49.042;9.028;2022-10-16T09:07:35;19.60;99.90
3790;DHT22;1910;49.042;9.028;2022-10-16T09:10:32;19.30;99.90
3790;DHT22;1910;49.042;9.028;2022-10-16T09:13:48;19.40;99.90
3790;DHT22;1910;49.042;9.028;2022-10-16T09:20:59;19.80;99.90
3790;DHT22;1910;49.042;9.028;2022-10-16T09:23:29;20.50;99.90
3790;DHT22;1910;49.042;9.028;2022-10-16T09:25:56;21.10;99.90
3790;DHT22;1910;49.042;9.028;2022-10-16T09:30:49;22.10;99.90
3790;DHT22;1910;49.042;9.028;2022-10-16T09:33:17;22.20;99.90
3790;DHT22;1910;49.042;9.028;2022-10-16T09:35:45;22.40;99.90
3790;DHT22;1910;49.042;9.028;2022-10-16T09:38:28;22.30;99.90
3790;DHT22;1910;49.042;9.028;2022-10-16T09:41:28;21.80;99.90
3790;DHT22;1910;49.042;9.028;2022-10-16T09:43:59;22.70;99.90
3790;DHT22;1910;49.042;9.028;2022-10-16T09:46:33;22.70;99.90
3790;DHT22;1910;49.042;9.028;2022-10-16T09:49:03;23.00;99.90
3790;DHT22;1910;49.042;9.028;2022-10-16T09:54:01;23.50;99.90
3790;DHT22;1910;49.042;9.028;2022-10-16T09:56:29;23.60;99.90
3790;DHT22;1910;49.042;9.028;2022-10-16T09:59:00;23.90;99.90
3790;DHT22;1910;49.042;9.028;2022-10-16T10:01:35;23.10;99.90
3790;DHT22;1910;49.042;9.028;2022-10-16T10:06:35;23.00;99.90
3790;DHT22;1910;49.042;9.028;2022-10-16T10:09:04;22.70;99.90
3790;DHT22;1910;49.042;9.028;2022-10-16T10:11:57;22.80;99.90
3790;DHT22;1910;49.042;9.028;2022-10-16T10:14:34;22.40;99.90
3790;DHT22;1910;49.042;9.028;2022-10-16T10:17:11;22.50;99.90
3790;DHT22;1910;49.042;9.028;2022-10-16T10:19:49;22.80;99.90
3790;DHT22;1910;49.042;9.028;2022-10-16T10:30:41;23.60;99.90
3790;DHT22;1910;49.042;9.028;2022-10-16T10:39:17;22.30;99.90
3790;DHT22;1910;49.042;9.028;2022-10-16T10:41:57;22.10;99.90
3790;DHT22;1910;49.042;9.028;2022-10-16T10:44:50;22.70;99.90
3790;DHT22;1910;49.042;9.028;2022-10-16T10:47:40;22.50;99.90
3790;DHT22;1910;49.042;9.028;2022-10-16T10:55:15;22.40;99.90
3790;DHT22;1910;49.042;9.028;2022-10-16T11:00:28;23.30;99.90
3790;DHT22;1910;49.042;9.028;2022-10-16T11:06:00;23.60;99.90
3790;DHT22;1910;49.042;9.028;2022-10-16T11:08:45;23.90;99.90
3790;DHT22;1910;49.042;9.028;2022-10-16T11:11:36;23.90;99.90
3790;DHT22;1910;49.042;9.028;2022-10-16T11:25:11;24.00;99.90
3790;DHT22;1910;49.042;9.028;2022-10-16T11:30:12;24.10;99.90
3790;DHT22;1910;49.042;9.028;2022-10-16T11:35:43;22.70;99.90
3790;DHT22;1910;49.042;9.028;2022-10-16T11:41:35;22.60;99.90
3790;DHT22;1910;49.042;9.028;2022-10-16T11:44:48;22.50;99.90
3790;DHT22;1910;49.042;9.028;2022-10-16T11:47:43;22.50;99.90
3790;DHT22;1910;49.042;9.028;2022-10-16T11:50:28;23.10;99.90
3790;DHT22;1910;49.042;9.028;2022-10-16T11:53:16;23.60;99.90
3790;DHT22;1910;49.042;9.028;2022-10-16T11:55:45;23.60;99.90
3790;DHT22;1910;49.042;9.028;2022-10-16T12:01:30;24.90;99.90
3790;DHT22;1910;49.042;9.028;2022-10-16T12:04:16;25.50;99.90
3790;DHT22;1910;49.042;9.028;2022-10-16T12:06:48;26.00;99.90
3790;DHT22;1910;49.042;9.028;2022-10-16T12:09:27;25.90;99.90
3790;DHT22;1910;49.042;9.028;2022-10-16T12:21:45;26.20;99.90
3790;DHT22;1910;49.042;9.028;2022-10-16T12:24:39;26.00;99.90
3790;DHT22;1910;49.042;9.028;2022-10-16T12:27:27;25.90;99.90
3790;DHT22;1910;49.042;9.028;2022-10-16T12:30:01;25.60;99.90
3790;DHT22;1910;49.042;9.028;2022-10-16T12:32:37;25.60;99.90
3790;DHT22;1910;49.042;9.028;2022-10-16T12:35:06;25.60;99.90
3790;DHT22;1910;49.042;9.028;2022-10-16T12:37:34;25.60;99.90
3790;DHT22;1910;49.042;9.028;2022-10-16T12:40:13;25.10;99.90
3790;DHT22;1910;49.042;9.028;2022-10-16T12:47:52;25.20;99.90
3790;DHT22;1910;49.042;9.028;2022-10-16T12:50:38;25.40;99.90
3790;DHT22;1910;49.042;9.028;2022-10-16T12:53:26;25.30;99.90
3790;DHT22;1910;49.042;9.028;2022-10-16T13:01:25;25.60;99.90
3790;DHT22;1910;49.042;9.028;2022-10-16T13:14:55;24.90;99.90
3790;DHT22;1910;49.042;9.028;2022-10-16T13:17:59;25.10;99.90
3790;DHT22;1910;49.042;9.028;2022-10-16T13:23:33;24.90;99.90
3790;DHT22;1910;49.042;9.028;2022-10-16T13:26:17;25.00;99.90
3790;DHT22;1910;49.042;9.028;2022-10-16T13:31:23;24.40;99.90
3790;DHT22;1910;49.042;9.028;2022-10-16T13:33:52;24.20;99.90
3790;DHT22;1910;49.042;9.028;2022-10-16T13:36:25;24.00;99.90
3790;DHT22;1910;49.042;9.028;2022-10-16T13:41:57;24.00;99.90
3790;DHT22;1910;49.042;9.028;2022-10-16T13:47:02;23.50;99.90
3790;DHT22;1910;49.042;9.028;2022-10-16T13:51:59;23.40;99.90
3790;DHT22;1910;49.042;9.028;2022-10-16T13:54:28;23.60;99.90
3790;DHT22;1910;49.042;9.028;2022-10-16T13:59:25;23.80;99.90
3790;DHT22;1910;49.042;9.028;2022-10-16T14:01:53;24.00;99.90
3790;DHT22;1910;49.042;9.028;2022-10-16T14:04:21;24.00;99.90
3790;DHT22;1910;49.042;9.028;2022-10-16T14:06:49;23.80;99.90
3790;DHT22;1910;49.042;9.028;2022-10-16T14:12:01;23.40;99.90
3790;DHT22;1910;49.042;9.028;2022-10-16T14:14:50;23.30;99.90
3790;DHT22;1910;49.042;9.028;2022-10-16T14:17:32;23.10;99.90
3790;DHT22;1910;49.042;9.028;2022-10-16T14:20:00;23.00;99.90
3790;DHT22;1910;49.042;9.028;2022-10-16T14:22:38;23.10;99.90
3790;DHT22;1910;49.042;9.028;2022-10-16T14:28:17;23.10;99.90
3790;DHT22;1910;49.042;9.028;2022-10-16T14:30:54;23.00;99.90
3790;DHT22;1910;49.042;9.028;2022-10-16T14:33:41;23.10;99.90
3790;DHT22;1910;49.042;9.028;2022-10-16T14:43:42;23.50;99.90
3790;DHT22;1910;49.042;9.028;2022-10-16T14:46:17;23.10;99.90
3790;DHT22;1910;49.042;9.028;2022-10-16T14:48:45;23.20;99.90
3790;DHT22;1910;49.042;9.028;2022-10-16T14:51:14;23.00;99.90
3790;DHT22;1910;49.042;9.028;2022-10-16T14:56:08;22.90;99.90
3790;DHT22;1910;49.042;9.028;2022-10-16T14:58:35;22.10;99.90
3790;DHT22;1910;49.042;9.028;2022-10-16T15:10:44;22.50;99.90
3790;DHT22;1910;49.042;9.028;2022-10-16T15:13:13;22.70;99.90
3790;DHT22;1910;49.042;9.028;2022-10-16T15:15:43;22.60;99.90
3790;DHT22;1910;49.042;9.028;2022-10-16T15:20:36;22.70;99.90
3790;DHT22;1910;49.042;9.028;2022-10-16T15:23:04;22.50;99.90
3790;DHT22;1910;49.042;9.028;2022-10-16T15:27:57;22.00;99.90
3790;DHT22;1910;49.042;9.028;2022-10-16T15:32:49;21.50;99.90
3790;DHT22;1910;49.042;9.028;2022-10-16T15:35:14;21.30;99.90
3790;DHT22;1910;49.042;9.028;2022-10-16T15:44:58;21.10;99.90
3790;DHT22;1910;49.042;9.028;2022-10-16T15:49:49;20.80;99.90
3790;DHT22;1910;49.042;9.028;2022-10-16T15:59:34;20.70;99.90
3790;DHT22;1910;49.042;9.028;2022-10-16T16:01:59;20.60;99.90
3790;DHT22;1910;49.042;9.028;2022-10-16T16:04:25;20.50;99.90
3790;DHT22;1910;49.042;9.028;2022-10-16T16:09:16;19.80;99.90
3790;DHT22;1910;49.042;9.028;2022-10-16T16:11:42;19.50;99.90
3790;DHT22;1910;49.042;9.028;2022-10-16T16:14:11;19.20;99.90
3790;DHT22;1910;49.042;9.028;2022-10-16T16:16:38;19.30;99.90
3790;DHT22;1910;49.042;9.028;2022-10-16T16:19:06;18.80;99.90
3790;DHT22;1910;49.042;9.028;2022-10-16T16:21:33;18.70;99.90
3790;DHT22;1910;49.042;9.028;2022-10-16T16:23:59;18.30;99.90
3790;DHT22;1910;49.042;9.028;2022-10-16T16:26:27;18.30;99.90
3790;DHT22;1910;49.042;9.028;2022-10-16T16:31:25;18.00;99.90
3790;DHT22;1910;49.042;9.028;2022-10-16T16:33:51;17.80;99.90
3790;DHT22;1910;49.042;9.028;2022-10-16T16:36:17;17.70;99.90
3790;DHT22;1910;49.042;9.028;2022-10-16T16:41:18;17.60;99.90
3790;DHT22;1910;49.042;9.028;2022-10-16T16:46:10;17.40;99.90
3790;DHT22;1910;49.042;9.028;2022-10-16T16:48:37;17.20;99.90
3790;DHT22;1910;49.042;9.028;2022-10-16T16:51:23;17.20;99.90
3790;DHT22;1910;49.042;9.028;2022-10-16T16:53:51;17.10;99.90
3790;DHT22;1910;49.042;9.028;2022-10-16T16:56:17;16.80;99.90
3790;DHT22;1910;49.042;9.028;2022-10-16T16:58:51;16.80;99.90
3790;DHT22;1910;49.042;9.028;2022-10-16T17:01:17;16.80;99.90
3790;DHT22;1910;49.042;9.028;2022-10-16T17:03:44;16.80;99.90
3790;DHT22;1910;49.042;9.028;2022-10-16T17:06:11;16.70;99.90
3790;DHT22;1910;49.042;9.028;2022-10-16T17:08:38;16.50;99.90
3790;DHT22;1910;49.042;9.028;2022-10-16T17:11:04;16.60;99.90
3790;DHT22;1910;49.042;9.028;2022-10-16T17:13:33;16.20;99.90
3790;DHT22;1910;49.042;9.028;2022-10-16T17:16:04;16.40;99.90
3790;DHT22;1910;49.042;9.028;2022-10-16T17:18:30;16.40;99.90
3790;DHT22;1910;49.042;9.028;2022-10-16T17:20:59;16.30;99.90
3790;DHT22;1910;49.042;9.028;2022-10-16T17:25:51;16.20;99.90
3790;DHT22;1910;49.042;9.028;2022-10-16T17:30:43;16.50;99.90
3790;DHT22;1910;49.042;9.028;2022-10-16T17:33:10;16.50;99.90
3790;DHT22;1910;49.042;9.028;2022-10-16T17:35:43;16.60;99.90
3790;DHT22;1910;49.042;9.028;2022-10-16T17:38:11;16.70;99.90
3790;DHT22;1910;49.042;9.028;2022-10-16T17:40:37;16.40;99.90
3790;DHT22;1910;49.042;9.028;2022-10-16T17:43:04;16.60;99.90
3790;DHT22;1910;49.042;9.028;2022-10-16T17:45:30;16.50;99.90
3790;DHT22;1910;49.042;9.028;2022-10-16T17:47:57;16.50;99.90
3790;DHT22;1910;49.042;9.028;2022-10-16T17:50:23;16.50;99.90
3790;DHT22;1910;49.042;9.028;2022-10-16T17:52:49;16.70;99.90
3790;DHT22;1910;49.042;9.028;2022-10-16T17:55:14;16.60;99.90
3790;DHT22;1910;49.042;9.028;2022-10-16T18:00:07;16.60;99.90
3790;DHT22;1910;49.042;9.028;2022-10-16T18:07:25;16.80;99.90
3790;DHT22;1910;49.042;9.028;2022-10-16T18:09:51;17.00;99.90
3790;DHT22;1910;49.042;9.028;2022-10-16T18:19:35;16.90;99.90
3790;DHT22;1910;49.042;9.028;2022-10-16T18:22:01;17.10;99.90
3790;DHT22;1910;49.042;9.028;2022-10-16T18:24:26;17.30;99.90
3790;DHT22;1910;49.042;9.028;2022-10-16T18:26:53;17.40;99.90
3790;DHT22;1910;49.042;9.028;2022-10-16T18:29:24;17.50;99.90
3790;DHT22;1910;49.042;9.028;2022-10-16T18:36:41;17.70;99.90
3790;DHT22;1910;49.042;9.028;2022-10-16T18:41:37;17.50;99.90
3790;DHT22;1910;49.042;9.028;2022-10-16T18:44:04;17.50;99.90
3790;DHT22;1910;49.042;9.028;2022-10-16T18:46:30;17.50;99.90
3790;DHT22;1910;49.042;9.028;2022-10-16T18:51:34;17.90;99.90
3790;DHT22;1910;49.042;9.028;2022-10-16T18:54:05;18.20;99.90
3790;DHT22;1910;49.042;9.028;2022-10-16T18:59:01;18.40;99.90
3790;DHT22;1910;49.042;9.028;2022-10-16T19:01:28;18.40;99.90
3790;DHT22;1910;49.042;9.028;2022-10-16T19:03:59;18.70;99.90
3790;DHT22;1910;49.042;9.028;2022-10-16T19:06:26;18.80;99.90
3790;DHT22;1910;49.042;9.028;2022-10-16T19:08:53;18.70;99.90
3790;DHT22;1910;49.042;9.028;2022-10-16T19:11:20;18.90;99.90
3790;DHT22;1910;49.042;9.028;2022-10-16T19:16:16;19.00;99.90
3790;DHT22;1910;49.042;9.028;2022-10-16T19:21:10;19.50;99.90
3790;DHT22;1910;49.042;9.028;2022-10-16T19:23:37;19.20;99.90
3790;DHT22;1910;49.042;9.028;2022-10-16T19:26:04;19.30;99.90
3790;DHT22;1910;49.042;9.028;2022-10-16T19:28:30;19.20;99.90
3790;DHT22;1910;49.042;9.028;2022-10-16T19:30:55;19.20;99.90
3790;DHT22;1910;49.042;9.028;2022-10-16T19:33:24;19.20;99.90
3790;DHT22;1910;49.042;9.028;2022-10-16T19:35:50;19.20;99.90
3790;DHT22;1910;49.042;9.028;2022-10-16T19:38:15;19.10;99.90
3790;DHT22;1910;49.042;9.028;2022-10-16T19:43:07;19.00;99.90
3790;DHT22;1910;49.042;9.028;2022-10-16T19:45:33;18.90;99.90
3790;DHT22;1910;49.042;9.028;2022-10-16T19:47:58;18.80;99.90
3790;DHT22;1910;49.042;9.028;2022-10-16T19:50:24;18.80;99.90
3790;DHT22;1910;49.042;9.028;2022-10-16T19:52:49;18.70;99.90
3790;DHT22;1910;49.042;9.028;2022-10-16T19:55:15;19.20;99.90
3790;DHT22;1910;49.042;9.028;2022-10-16T19:57:42;18.60;99.90
3790;DHT22;1910;49.042;9.028;2022-10-16T20:00:08;18.60;99.90
3790;DHT22;1910;49.042;9.028;2022-10-16T20:02:34;18.50;99.90
3790;DHT22;1910;49.042;9.028;2022-10-16T20:05:00;18.40;99.90
3790;DHT22;1910;49.042;9.028;2022-10-16T20:07:26;18.30;99.90
3790;DHT22;1910;49.042;9.028;2022-10-16T20:09:52;18.30;99.90
3790;DHT22;1910;49.042;9.028;2022-10-16T20:12:17;18.20;99.90
3790;DHT22;1910;49.042;9.028;2022-10-16T20:14:43;18.00;99.90
3790;DHT22;1910;49.042;9.028;2022-10-16T20:17:09;17.80;99.90
3790;DHT22;1910;49.042;9.028;2022-10-16T20:19:34;17.80;99.90
3790;DHT22;1910;49.042;9.028;2022-10-16T20:22:00;17.70;99.90
3790;DHT22;1910;49.042;9.028;2022-10-16T20:24:26;17.70;99.90
3790;DHT22;1910;49.042;9.028;2022-10-16T20:26:51;17.60;99.90
3790;DHT22;1910;49.042;9.028;2022-10-16T20:31:43;17.40;99.90
3790;DHT22;1910;49.042;9.028;2022-10-16T20:34:10;17.20;99.90
3790;DHT22;1910;49.042;9.028;2022-10-16T20:36:38;17.20;99.90
3790;DHT22;1910;49.042;9.028;2022-10-16T20:39:05;17.00;99.90
3790;DHT22;1910;49.042;9.028;2022-10-16T20:41:31;16.90;99.90
3790;DHT22;1910;49.042;9.028;2022-10-16T20:46:24;16.80;99.90
3790;DHT22;1910;49.042;9.028;2022-10-16T20:48:51;16.70;99.90
3790;DHT22;1910;49.042;9.028;2022-10-16T20:51:26;16.70;99.90
3790;DHT22;1910;49.042;9.028;2022-10-16T20:54:03;16.50;99.90
3790;DHT22;1910;49.042;9.028;2022-10-16T20:56:31;16.40;99.90
3790;DHT22;1910;49.042;9.028;2022-10-16T20:58:57;16.40;99.90
3790;DHT22;1910;49.042;9.028;2022-10-16T21:01:26;16.40;99.90
3790;DHT22;1910;49.042;9.028;2022-10-16T21:04:00;16.40;99.90
3790;DHT22;1910;49.042;9.028;2022-10-16T21:06:26;16.50;99.90
3790;DHT22;1910;49.042;9.028;2022-10-16T21:08:52;16.60;99.90
3790;DHT22;1910;49.042;9.028;2022-10-16T21:11:23;16.50;99.90
3790;DHT22;1910;49.042;9.028;2022-10-16T21:13:51;16.30;99.90
3790;DHT22;1910;49.042;9.028;2022-10-16T21:16:17;16.30;99.90
3790;DHT22;1910;49.042;9.028;2022-10-16T21:18:43;16.20;99.90
3790;DHT22;1910;49.042;9.028;2022-10-16T21:21:09;16.10;99.90
3790;DHT22;1910;49.042;9.028;2022-10-16T21:23:36;16.10;99.90
3790;DHT22;1910;49.042;9.028;2022-10-16T21:26:02;16.00;99.90
3790;DHT22;1910;49.042;9.028;2022-10-16T21:28:31;16.10;99.90
3790;DHT22;1910;49.042;9.028;2022-10-16T21:30:57;16.10;99.90
3790;DHT22;1910;49.042;9.028;2022-10-16T21:33:23;15.90;99.90
3790;DHT22;1910;49.042;9.028;2022-10-16T21:35:51;15.80;99.90
3790;DHT22;1910;49.042;9.028;2022-10-16T21:48:01;16.30;99.90
3790;DHT22;1910;49.042;9.028;2022-10-16T21:50:27;16.40;99.90
3790;DHT22;1910;49.042;9.028;2022-10-16T21:52:53;16.30;99.90
3790;DHT22;1910;49.042;9.028;2022-10-16T21:55:18;16.30;99.90
3790;DHT22;1910;49.042;9.028;2022-10-16T21:57:44;16.40;99.90
3790;DHT22;1910;49.042;9.028;2022-10-16T22:00:10;16.40;99.90
3790;DHT22;1910;49.042;9.028;2022-10-16T22:02:35;16.40;99.90
3790;DHT22;1910;49.042;9.028;2022-10-16T22:05:01;16.60;99.90
3790;DHT22;1910;49.042;9.028;2022-10-16T22:07:26;16.80;99.90
3790;DHT22;1910;49.042;9.028;2022-10-16T22:09:53;16.90;99.90
3790;DHT22;1910;49.042;9.028;2022-10-16T22:12:18;17.10;99.90
3790;DHT22;1910;49.042;9.028;2022-10-16T22:14:45;17.10;99.90
3790;DHT22;1910;49.042;9.028;2022-10-16T22:17:11;17.00;99.90
3790;DHT22;1910;49.042;9.028;2022-10-16T22:19:37;17.10;99.90
3790;DHT22;1910;49.042;9.028;2022-10-16T22:22:03;17.30;99.90
3790;DHT22;1910;49.042;9.028;2022-10-16T22:24:28;17.50;99.90
3790;DHT22;1910;49.042;9.028;2022-10-16T22:29:20;17.30;99.90
3790;DHT22;1910;49.042;9.028;2022-10-16T22:31:50;17.50;99.90
3790;DHT22;1910;49.042;9.028;2022-10-16T22:34:15;17.60;99.90
3790;DHT22;1910;49.042;9.028;2022-10-16T22:39:07;17.60;99.90
3790;DHT22;1910;49.042;9.028;2022-10-16T22:43:58;17.70;99.90
3790;DHT22;1910;49.042;9.028;2022-10-16T22:46:26;17.70;99.90
3790;DHT22;1910;49.042;9.028;2022-10-16T22:48:53;17.80;99.90
3790;DHT22;1910;49.042;9.028;2022-10-16T22:51:19;17.90;99.90
3790;DHT22;1910;49.042;9.028;2022-10-16T22:53:45;17.80;99.90
3790;DHT22;1910;49.042;9.028;2022-10-16T22:56:11;17.90;99.90
3790;DHT22;1910;49.042;9.028;2022-10-16T22:58:38;17.90;99.90
3790;DHT22;1910;49.042;9.028;2022-10-16T23:01:13;17.90;99.90
3790;DHT22;1910;49.042;9.028;2022-10-16T23:03:39;17.90;99.90
3790;DHT22;1910;49.042;9.028;2022-10-16T23:06:05;17.90;99.90
3790;DHT22;1910;49.042;9.028;2022-10-16T23:08:30;18.00;99.90
3790;DHT22;1910;49.042;9.028;2022-10-16T23:10:56;18.00;99.90
3790;DHT22;1910;49.042;9.028;2022-10-16T23:15:51;17.90;99.90
3790;DHT22;1910;49.042;9.028;2022-10-16T23:18:16;17.80;99.90
3790;DHT22;1910;49.042;9.028;2022-10-16T23:20:42;17.60;99.90
3790;DHT22;1910;49.042;9.028;2022-10-16T23:25:35;17.40;99.90
3790;DHT22;1910;49.042;9.028;2022-10-16T23:28:01;17.30;99.90
3790;DHT22;1910;49.042;9.028;2022-10-16T23:30:27;17.30;99.90
3790;DHT22;1910;49.042;9.028;2022-10-16T23:32:52;17.20;99.90
3790;DHT22;1910;49.042;9.028;2022-10-16T23:35:18;17.10;99.90
3790;DHT22;1910;49.042;9.028;2022-10-16T23:37:43;17.10;99.90
3790;DHT22;1910;49.042;9.028;2022-10-16T23:40:09;17.30;99.90
3790;DHT22;1910;49.042;9.028;2022-10-16T23:42:35;17.30;99.90
3790;DHT22;1910;49.042;9.028;2022-10-16T23:45:01;17.30;99.90
3790;DHT22;1910;49.042;9.028;2022-10-16T23:47:26;17.30;99.90
3790;DHT22;1910;49.042;9.028;2022-10-16T23:49:52;17.40;99.90
3790;DHT22;1910;49.042;9.028;2022-10-16T23:52:17;17.50;99.90
3790;DHT22;1910;49.042;9.028;2022-10-16T23:54:43;17.60;99.90
3790;DHT22;1910;49.042;9.028;2022-10-16T23:57:08;17.60;99.90
3790;DHT22;1910;49.042;9.028;2022-10-16T23:59:34;19.50;99.90
